Latest Weather Observations for Canberra

IDN60901

Issued at 7:51 am EST Tuesday 7 April 2020 (issued every 10 minutes, with the page automatically refreshed every 10 minutes)

About weather observations | Map of Canberra area stations | Latest observations for Canberra area | Other Formats
Station Details ID: 070351 Name: CANBERRA AIRPORT Lat: -35.31 Lon: 149.20 Height: 577.05 m
Data from the previous 72 hours. | See also: Recent months at Canberra
Date/Time
EST
Temp
°C
App
Temp
°C
Dew
Point
°C
Rel
Hum
%
Delta-T
°C
Wind Press
QNH
hPa
Press
MSL
hPa
Rain since
9am
mm
Dir  Spd
km/h
Gust
km/h
Spd
kts
Gust
kts
07/07:30am 10.3 9.9 8.4 88 1.0 CALM 0 0 0 0 1023.4 1022.7 0.0
07/07:00am 7.0 6.2 6.7 98 0.1 CALM 0 0 0 0 1023.3 1022.6 0.0
07/06:30am 6.2 3.8 5.3 94 0.4 ENE 7 7 4 4 1023.0 1022.3 0.0
07/06:00am 7.8 5.9 7.4 97 0.2 ENE 7 7 4 4 1022.6 1021.9 0.0
07/05:30am 7.9 6.4 6.8 93 0.5 ENE 4 7 2 4 1022.5 1021.8 0.0
07/05:00am 8.7 6.5 7.8 94 0.4 ENE 9 11 5 6 1022.3 1021.5 0.0
07/04:30am 9.0 6.4 7.6 91 0.7 SE 11 13 6 7 1022.0 1021.2 0.0
07/04:19am 9.3 6.3 7.7 90 0.8 ESE 13 15 7 8 1022.0 1021.2 0.0
07/04:00am 9.6 7.3 7.4 86 1.1 SE 9 11 5 6 1022.0 1021.2 0.0
07/03:30am 11.4 9.5 9.1 86 1.2 ESE 9 9 5 5 1021.9 1021.1 0.0
07/03:00am 11.3 9.4 9.2 87 1.1 ENE 9 11 5 6 1022.0 1021.2 0.0
07/02:30am 10.6 8.9 8.5 87 1.1 E 7 9 4 5 1022.1 1021.3 0.0
07/02:27am 10.6 8.9 8.5 87 1.1 E 7 9 4 5 1022.0 1021.2 0.0
07/02:00am 10.8 10.4 8.4 85 1.2 CALM 0 0 0 0 1022.3 1021.5 0.0
07/01:30am 11.4 11.1 8.8 84 1.3 CALM 0 0 0 0 1022.3 1021.5 0.0
07/01:00am 11.8 11.6 9.0 83 1.4 CALM 0 0 0 0 1022.6 1021.9 0.0
07/12:30am 11.9 11.3 8.9 82 1.5 NNE 2 7 1 4 1022.7 1022.0 0.0
07/12:20am 11.9 11.7 8.9 82 1.5 CALM 0 0 0 0 1022.7 1022.0 0.0
07/12:00am 11.9 11.7 8.9 82 1.5 CALM 0 0 0 0 1022.5 1021.8 0.0
 
Date/Time
EST
Temp
°C
App
Temp
°C
Dew
Point
°C
Rel
Hum
%
Delta-T
°C
Wind Press
QNH
hPa
Press
MSL
hPa
Rain since
9am
mm
Dir  Spd
km/h
Gust
km/h
Spd
kts
Gust
kts
06/11:30pm 12.0 11.7 8.8 81 1.6 CALM 0 0 0 0 1022.4 1021.7 0.0
06/11:00pm 12.2 10.3 9.0 81 1.6 ENE 9 15 5 8 1022.5 1021.8 0.0
06/10:30pm 12.3 9.3 9.1 81 1.7 ENE 15 20 8 11 1022.5 1021.8 0.0
06/10:00pm 12.3 9.3 9.1 81 1.7 E 15 19 8 10 1022.4 1021.7 0.0
06/09:30pm 12.4 9.0 9.1 80 1.7 E 17 28 9 15 1022.1 1021.3 0.0
06/09:00pm 12.4 8.6 9.2 81 1.7 E 19 26 10 14 1021.9 1021.1 0.0
06/08:30pm 12.4 8.4 9.2 81 1.7 E 20 26 11 14 1021.7 1020.9 0.0
06/08:00pm 12.2 8.2 9.2 82 1.6 E 20 26 11 14 1021.3 1020.6 0.0
06/07:30pm 12.2 8.8 9.0 81 1.7 ENE 17 24 9 13 1020.8 1020.0 0.0
06/07:00pm 12.9 10.0 6.7 66 3.1 NE 11 13 6 7 1020.4 1019.6 0.0
06/06:30pm 13.4 10.5 6.5 63 3.4 NNE 11 15 6 8 1019.7 1019.0 0.0
06/06:00pm 13.8 10.6 6.9 63 3.4 N 13 15 7 8 1019.2 1018.4 0.0
06/05:30pm 15.0 11.0 6.8 58 4.1 NNW 17 20 9 11 1018.9 1018.1 0.0
06/05:00pm 16.4 12.4 6.5 52 5.0 NW 17 26 9 14 1018.5 1017.7 0.0
06/04:30pm 17.5 14.1 5.8 46 5.9 WNW 13 17 7 9 1018.5 1017.7 0.0
06/04:00pm 17.8 14.7 7.2 50 5.5 WNW 13 19 7 10 1018.3 1017.5 0.0
06/03:30pm 17.9 14.2 6.4 47 5.9 WNW 15 22 8 12 1018.3 1017.5 0.0
06/03:00pm 18.0 13.6 7.4 50 5.5 WNW 20 28 11 15 1018.2 1017.4 0.0
06/02:30pm 18.0 13.4 6.5 47 5.9 WNW 20 30 11 16 1018.1 1017.3 0.0
06/02:00pm 17.7 13.1 6.6 48 5.7 WNW 20 32 11 17 1018.0 1017.2 0.0
06/01:30pm 17.6 12.7 6.8 49 5.5 WNW 22 30 12 16 1018.1 1017.3 0.0
06/01:00pm 17.4 12.8 8.0 54 4.9 WNW 22 32 12 17 1018.2 1017.4 0.0
06/12:30pm 16.9 12.1 7.3 53 4.9 NW 22 35 12 19 1018.7 1017.9 0.0
06/12:00pm 16.7 12.6 7.9 56 4.6 WNW 19 28 10 15 1019.0 1018.2 0.0
06/11:30am 16.7 11.3 6.5 51 5.2 WNW 24 32 13 17 1019.3 1018.5 0.0
06/11:00am 16.9 12.2 7.8 55 4.7 WNW 22 33 12 18 1019.3 1018.5 0.0
06/10:30am 15.6 10.2 7.9 60 4.0 NNW 26 35 14 19 1019.3 1018.5 0.0
06/10:00am 15.2 10.9 10.6 74 2.5 NNW 24 33 13 18 1019.6 1018.9 0.0
06/09:48am 14.0 10.3 10.0 77 2.1 NNW 20 30 11 16 1019.6 1018.9 0.0
06/09:38am 13.4 9.1 9.3 76 2.1 NNW 22 30 12 16 1019.7 1019.0 0.0
06/09:30am 13.6 10.0 9.8 78 2.0 NNW 19 28 10 15 1019.7 1019.0 0.0
06/09:29am 13.4 9.5 9.5 77 2.1 NNW 20 28 11 15 1019.7 1019.0 0.0
06/09:00am 13.5 10.4 10.3 81 1.7 NW 17 28 9 15 1019.6 1018.9 0.0
06/08:59am 13.2 9.5 9.6 79 1.9 NW 19 28 10 15 1019.6 1018.9 0.0
06/08:30am 12.6 8.4 9.6 82 1.6 NNW 22 30 12 16 1019.5 1018.8 0.0
06/08:12am 12.8 9.1 10.3 85 1.3 NNW 20 32 11 17 1019.2 1018.4 0.0
06/08:00am 12.3 9.4 11.0 92 0.7 NNW 17 24 9 13 1019.2 1018.4 0.0
06/07:30am 11.4 8.0 10.5 94 0.5 NNW 19 24 10 13 1018.9 1018.1 0.0
06/07:22am 11.4 8.4 10.6 95 0.4 NNW 17 22 9 12 1018.8 1018.0 0.0
06/07:00am 11.3 7.9 10.7 96 0.3 NW 19 24 10 13 1018.4 1017.6 0.0
06/06:38am 11.1 7.7 10.6 97 0.3 NNW 19 24 10 13 1018.1 1017.3 0.0
06/06:30am 11.0 7.6 10.7 98 0.2 NNW 19 30 10 16 1018.0 1017.2 0.0
06/06:00am 10.7 6.3 10.5 99 0.1 NNW 24 30 13 16 1017.5 1016.7 0.0
06/05:33am 10.7 5.6 10.5 99 0.1 NNW 28 35 15 19 1017.4 1016.6 0.0
06/05:30am 10.6 5.8 10.4 99 0.1 NNW 26 35 14 19 1017.3 1016.5 0.0
06/05:00am 10.5 5.2 10.0 97 0.3 NNW 28 33 15 18 1017.0 1016.2 0.0
06/04:57am 10.6 5.4 10.1 97 0.3 NNW 28 33 15 18 1017.0 1016.2 0.0
06/04:30am 10.6 5.3 10.0 96 0.3 NNW 28 37 15 20 1016.7 1015.9 0.0
06/04:00am 10.5 5.2 9.7 95 0.4 NNW 28 39 15 21 1016.5 1015.7 0.0
06/03:30am 10.5 5.2 9.9 96 0.3 NNW 28 37 15 20 1016.4 1015.6 0.0
06/03:16am 10.5 5.5 9.7 95 0.4 NNW 26 32 14 17 1016.5 1015.7 0.0
06/03:00am 10.7 6.5 9.8 94 0.5 N 22 30 12 16 1016.5 1015.7 0.0
06/02:31am 10.8 6.3 10.2 96 0.3 N 24 32 13 17 1016.6 1015.8 0.0
06/02:30am 10.8 6.0 10.2 96 0.3 N 26 32 14 17 1016.6 1015.8 0.0
06/02:14am 10.9 6.1 10.3 96 0.3 N 26 33 14 18 1016.7 1015.9 0.0
06/02:00am 10.8 6.7 10.2 96 0.3 N 22 30 12 16 1016.7 1015.9 0.0
06/01:30am 10.8 6.2 9.7 93 0.6 NNW 24 30 13 16 1016.7 1015.9 0.0
06/01:00am 11.3 6.2 9.2 87 1.1 NNW 26 32 14 17 1016.8 1016.0 0.0
06/12:30am 11.8 6.5 8.5 80 1.7 NNW 26 35 14 19 1016.6 1015.8 0.0
06/12:00am 11.8 6.9 8.3 79 1.8 NNW 24 32 13 17 1016.5 1015.7 0.0
 
Date/Time
EST
Temp
°C
App
Temp
°C
Dew
Point
°C
Rel
Hum
%
Delta-T
°C
Wind Press
QNH
hPa
Press
MSL
hPa
Rain since
9am
mm
Dir  Spd
km/h
Gust
km/h
Spd
kts
Gust
kts
05/11:30pm 11.7 6.7 8.2 79 1.8 NNW 24 32 13 17 1016.5 1015.7 0.0
05/11:00pm 11.8 5.7 8.1 78 1.9 NW 30 41 16 22 1016.5 1015.7 0.0
05/10:30pm 11.9 6.1 7.8 76 2.1 NNW 28 35 15 19 1016.4 1015.6 0.0
05/10:00pm 12.0 6.1 7.5 74 2.3 NNW 28 37 15 20 1016.3 1015.4 0.0
05/09:30pm 12.1 6.9 7.4 73 2.3 NNW 24 32 13 17 1016.3 1015.4 0.0
05/09:00pm 11.9 7.1 7.4 74 2.2 NNW 22 32 12 17 1016.0 1015.2 0.0
05/08:30pm 11.9 6.7 7.2 73 2.3 NNW 24 33 13 18 1015.9 1015.1 0.0
05/08:00pm 11.9 6.3 7.0 72 2.4 NNW 26 33 14 18 1015.6 1014.8 0.0
05/07:30pm 11.8 6.5 6.9 72 2.4 NNW 24 32 13 17 1015.6 1014.8 0.0
05/07:00pm 11.8 5.7 6.7 71 2.5 NW 28 35 15 19 1015.5 1014.7 0.0
05/06:30pm 11.7 4.6 6.4 70 2.6 NW 33 41 18 22 1015.1 1014.3 0.0
05/06:00pm 11.8 5.6 6.3 69 2.7 NW 28 35 15 19 1014.9 1014.1 0.0
05/05:30pm 11.8 5.3 6.5 70 2.6 NW 30 41 16 22 1014.6 1013.7 0.0
05/05:00pm 12.1 5.5 6.2 67 2.9 NW 30 37 16 20 1014.1 1013.3 0.0
05/04:30pm 12.1 5.5 6.2 67 2.9 NNW 30 41 16 22 1014.0 1013.2 0.0
05/04:00pm 12.1 5.9 6.2 67 2.9 NW 28 39 15 21 1013.8 1013.0 0.0
05/03:30pm 11.9 4.8 5.5 65 3.1 NW 32 41 17 22 1013.8 1013.0 0.0
05/03:00pm 12.2 5.4 5.1 62 3.4 NW 30 41 16 22 1013.7 1012.9 0.0
05/02:39pm 12.4 5.2 5.1 61 3.5 WNW 32 50 17 27 1013.7 1012.9 0.0
05/02:30pm 12.5 5.1 5.0 60 3.6 NW 33 43 18 23 1013.7 1012.9 0.0
05/02:00pm 12.5 5.1 5.0 60 3.6 NW 33 52 18 28 1013.6 1012.8 0.0
05/01:36pm 13.7 6.5 5.1 56 4.1 WNW 32 50 17 27 1013.4 1012.6 0.0
05/01:30pm 13.1 5.7 5.0 58 3.9 WNW 33 44 18 24 1013.4 1012.6 0.0
05/01:02pm 13.8 6.2 5.7 58 4.0 WNW 35 56 19 30 1013.5 1012.7 0.0
05/01:00pm 12.9 5.4 4.3 56 4.0 WNW 33 46 18 25 1013.6 1012.8 0.0
05/12:30pm 13.2 5.3 4.6 56 4.1 NW 35 50 19 27 1013.6 1012.8 0.0
05/12:05pm 13.9 7.4 6.3 60 3.8 NW 30 48 16 26 1013.6 1012.8 0.0
05/12:00pm 13.2 5.9 5.6 60 3.7 NW 33 48 18 26 1013.6 1012.8 0.0
05/11:31am 13.3 6.1 5.0 57 4.0 NW 32 50 17 27 1014.1 1013.3 0.0
05/11:30am 13.2 6.0 4.9 57 4.0 NW 32 48 17 26 1014.1 1013.3 0.0
05/11:24am 13.4 6.2 5.1 57 4.0 WNW 32 50 17 27 1014.1 1013.3 0.0
05/11:18am 13.1 5.6 4.5 56 4.1 NW 33 50 18 27 1014.0 1013.2 0.0
05/11:15am 13.2 6.1 5.4 59 3.8 NW 32 44 17 24 1014.0 1013.2 0.0
05/11:00am 13.3 6.5 5.2 58 3.9 WNW 30 39 16 21 1014.0 1013.2 0.0
05/10:30am 12.2 5.6 4.4 59 3.7 NW 28 39 15 21 1014.5 1013.6 0.0
05/10:00am 12.1 5.6 4.6 60 3.5 NW 28 37 15 20 1014.5 1013.6 0.0
05/09:30am 10.7 4.9 4.2 64 3.0 WNW 24 35 13 19 1014.4 1013.5 0.0
05/09:00am 10.6 4.6 3.6 62 3.2 NW 24 39 13 21 1014.3 1013.4 1.4
05/08:30am 10.6 5.0 3.2 60 3.3 NW 22 35 12 19 1014.0 1013.2 1.4
05/08:00am 10.5 5.0 3.8 63 3.1 NNW 22 35 12 19 1013.6 1012.8 1.4
05/07:30am 10.1 5.0 4.3 67 2.7 NNW 20 30 11 16 1013.1 1012.2 1.4
05/07:00am 9.7 4.6 3.9 67 2.6 NNW 20 30 11 16 1012.7 1011.8 1.4
05/06:30am 9.4 4.4 4.4 71 2.3 NW 20 30 11 16 1012.2 1011.4 1.4
05/06:19am 9.3 3.5 4.5 72 2.2 NW 24 35 13 19 1012.0 1011.2 1.4
05/06:00am 9.4 4.7 5.0 74 2.0 NW 19 32 10 17 1011.8 1010.9 1.4
05/05:30am 9.3 3.2 4.9 74 2.0 NW 26 37 14 20 1011.4 1010.5 1.4
05/05:00am 9.3 3.6 4.7 73 2.1 WNW 24 37 13 20 1011.1 1010.2 1.4
05/04:30am 9.6 2.4 4.8 72 2.2 WNW 32 39 17 21 1010.7 1009.8 1.4
05/04:00am 9.6 2.3 5.4 75 2.0 NW 33 41 18 22 1010.5 1009.7 1.4
05/03:30am 9.4 3.4 5.2 75 2.0 NW 26 32 14 17 1010.4 1009.6 1.4
05/03:00am 9.0 2.6 5.4 78 1.7 NNW 28 35 15 19 1010.2 1009.3 1.4
05/03:30am 9.2 4.6 5.4 77 1.8 NNW 19 26 10 14 1010.5 1009.7 1.4
05/03:00am 9.5 4.7 5.7 77 1.8 N 20 26 11 14 1010.8 1009.9 1.4
05/02:30am 9.9 5.3 5.5 74 2.1 N 19 28 10 15 1010.8 1009.9 1.4
05/02:00am 9.6 6.0 5.0 73 2.1 N 13 17 7 9 1010.7 1009.8 1.4
05/01:30am 10.0 5.7 5.2 72 2.3 NNW 17 30 9 16 1010.5 1009.7 1.4
05/01:00am 9.9 6.4 5.5 74 2.1 NNW 13 19 7 10 1010.2 1009.3 1.4
05/12:30am 10.0 6.2 5.8 75 2.0 NNW 15 22 8 12 1009.9 1009.0 1.4
05/12:00am 10.3 6.6 6.1 75 2.0 NNW 15 20 8 11 1010.1 1009.2 1.4
 
Date/Time
EST
Temp
°C
App
Temp
°C
Dew
Point
°C
Rel
Hum
%
Delta-T
°C
Wind Press
QNH
hPa
Press
MSL
hPa
Rain since
9am
mm
Dir  Spd
km/h
Gust
km/h
Spd
kts
Gust
kts
04/11:30pm 10.3 5.7 5.7 73 2.2 NW 19 28 10 15 1009.8 1008.9 1.4
04/11:00pm 9.8 3.8 5.4 74 2.1 NW 26 43 14 23 1009.7 1008.8 1.4
04/10:30pm 10.1 4.2 5.7 74 2.1 WNW 26 41 14 22 1009.7 1008.8 1.4
04/10:00pm 10.3 3.6 7.4 82 1.4 NW 32 43 17 23 1009.7 1008.8 1.2
04/09:30pm 11.1 4.6 6.5 73 2.2 NW 30 39 16 21 1009.0 1008.1 0.8
04/09:00pm 11.2 6.5 6.1 71 2.5 NW 20 33 11 18 1008.6 1007.7 0.8
04/08:30pm 11.0 6.3 6.0 71 2.4 WNW 20 35 11 19 1008.4 1007.5 0.8
04/08:00pm 10.9 5.4 5.9 71 2.4 WNW 24 33 13 18 1008.0 1007.1 0.8
04/07:30pm 10.8 4.7 6.6 75 2.0 NW 28 37 15 20 1007.2 1006.2 0.8
04/07:05pm 11.2 5.3 7.5 78 1.8 W 28 48 15 26 1006.5 1005.6 0.6
04/07:00pm 12.3 6.3 7.0 70 2.6 WNW 28 39 15 21 1006.3 1005.4 0.2
04/06:30pm 11.9 4.9 7.0 72 2.4 NW 33 54 18 29 1005.1 1004.1 0.2
04/06:00pm 12.7 4.3 7.4 70 2.7 WNW 41 61 22 33 1004.6 1003.7 0.2
04/05:33pm 12.7 6.3 8.4 75 2.2 WNW 32 50 17 27 1004.0 1003.0 0.2
04/05:30pm 12.7 6.0 9.5 81 1.7 WNW 35 50 19 27 1004.0 1003.0 0.2
04/05:06pm 13.0 6.6 8.7 75 2.2 NW 32 50 17 27 1003.7 1002.7 0.2
04/05:00pm 13.4 5.5 8.0 70 2.8 WNW 39 50 21 27 1003.6 1002.6 0.2
04/04:51pm 13.7 7.6 8.3 70 2.8 WNW 30 50 16 27 1003.4 1002.4 0.2
04/04:30pm 12.7 6.4 9.7 82 1.6 NW 33 48 18 26 1003.4 1002.4 0.0
04/04:00pm 13.8 4.6 7.8 67 3.1 NW 46 67 25 36 1002.8 1001.8 0.0
04/03:30pm 15.1 6.1 7.4 60 3.9 NW 44 63 24 34 1002.5 1001.5 0.0
04/03:00pm 15.8 7.0 7.1 56 4.5 WNW 43 61 23 33 1001.9 1000.9 0.0
04/02:31pm 15.3 6.5 8.1 62 3.7 WNW 44 63 24 34 1001.8 1000.8 0.0
04/02:30pm 15.4 6.3 8.6 64 3.6 WNW 46 63 25 34 1001.8 1000.8 0.0
04/02:00pm 15.0 7.6 8.3 64 3.5 NW 37 59 20 32 1001.5 1000.5 0.0
04/01:30pm 14.4 4.7 7.5 63 3.5 WNW 48 69 26 37 1001.2 1000.2 0.0
04/01:07pm 15.5 6.3 7.8 60 4.0 NW 46 65 25 35 1001.1 1000.1 0.0
04/01:00pm 15.5 5.9 8.0 61 3.9 WNW 48 65 26 35 1000.9 999.9 0.0
04/12:30pm 15.4 6.8 8.9 65 3.4 NW 44 70 24 38 1000.9 999.9 0.0
04/12:00pm 15.0 6.2 9.6 70 2.9 NW 46 67 25 36 1000.9 999.9 0.0
04/11:51am 14.3 6.1 8.3 67 3.1 WNW 41 67 22 36 1000.9 999.9 0.0
04/11:30am 14.1 5.8 9.5 74 2.4 NW 43 63 23 34 1001.2 1000.2 0.0
04/11:07am 14.8 7.0 9.8 72 2.7 NW 41 59 22 32 1000.7 999.7 0.0
04/11:06am 14.8 7.2 10.4 75 2.4 NW 41 54 22 29 1000.7 999.7 0.0
04/11:00am 14.6 6.4 10.4 76 2.3 NW 44 67 24 36 1000.5 999.5 0.0
04/10:31am 15.6 7.8 9.9 69 3.1 NW 41 65 22 35 999.7 998.6 0.0
04/10:30am 15.8 8.1 10.3 70 3.0 NW 41 56 22 30 999.7 998.6 0.0
04/10:00am 15.7 8.8 11.7 77 2.2 NNW 39 50 21 27 999.6 998.5 0.0
04/09:30am 15.5 10.9 13.5 88 1.2 NNW 30 35 16 19 998.7 997.7 0.0
04/09:08am 15.0 10.2 14.0 94 0.6 NNW 32 39 17 21 999.0 998.0 0.0
04/09:00am 14.7 10.2 13.9 95 0.5 NNW 30 39 16 21 999.1 998.1 8.2

Latest Capital City Observations: Canberra | Sydney | Melbourne | Brisbane | Adelaide | Perth | Hobart | Darwin

Other formats

Comma delimited format used in spreadsheet applications
http://www.bom.gov.au/fwo/IDN60903/IDN60903.94926.axf

JavaScript Object Notation format (JSON) in row-major order
http://www.bom.gov.au/fwo/IDN60903/IDN60903.94926.json

Data quality

Most of these data are generated automatically and are frequently updated. Quality checks on data are not normally performed. It is possible for incorrect values to appear. Refer to information at About Latest Weather Observations and please check the disclaimer before using these data.